sensor_id;sensor_type;location;lat;lon;timestamp;P1;durP1;ratioP1;P2;durP2;ratioP2
11394;SDS011;5753;54.402;10.220;2023-07-08T00:00:25;12.43;;;10.07;;
11394;SDS011;5753;54.402;10.220;2023-07-08T00:02:51;9.90;;;7.45;;
11394;SDS011;5753;54.402;10.220;2023-07-08T00:05:18;9.32;;;8.38;;
11394;SDS011;5753;54.402;10.220;2023-07-08T00:07:46;13.65;;;8.48;;
11394;SDS011;5753;54.402;10.220;2023-07-08T00:10:14;9.25;;;7.55;;
11394;SDS011;5753;54.402;10.220;2023-07-08T00:12:49;8.45;;;6.50;;
11394;SDS011;5753;54.402;10.220;2023-07-08T00:15:17;8.07;;;5.85;;
11394;SDS011;5753;54.402;10.220;2023-07-08T00:17:45;11.93;;;7.53;;
11394;SDS011;5753;54.402;10.220;2023-07-08T00:20:12;9.02;;;7.90;;
11394;SDS011;5753;54.402;10.220;2023-07-08T00:22:42;9.02;;;7.38;;
11394;SDS011;5753;54.402;10.220;2023-07-08T00:25:11;6.68;;;6.03;;
11394;SDS011;5753;54.402;10.220;2023-07-08T00:27:40;8.43;;;7.53;;
11394;SDS011;5753;54.402;10.220;2023-07-08T00:30:48;8.63;;;7.50;;
11394;SDS011;5753;54.402;10.220;2023-07-08T00:32:56;7.80;;;6.97;;
11394;SDS011;5753;54.402;10.220;2023-07-08T00:35:33;6.78;;;5.85;;
11394;SDS011;5753;54.402;10.220;2023-07-08T00:38:01;11.88;;;8.25;;
11394;SDS011;5753;54.402;10.220;2023-07-08T00:44:07;10.73;;;8.10;;
11394;SDS011;5753;54.402;10.220;2023-07-08T00:46:22;16.92;;;9.85;;
11394;SDS011;5753;54.402;10.220;2023-07-08T00:51:49;11.82;;;10.63;;
11394;SDS011;5753;54.402;10.220;2023-07-08T00:54:17;14.95;;;10.73;;
11394;SDS011;5753;54.402;10.220;2023-07-08T00:59:25;11.07;;;7.53;;
11394;SDS011;5753;54.402;10.220;2023-07-08T01:01:56;11.85;;;9.93;;
11394;SDS011;5753;54.402;10.220;2023-07-08T01:04:31;15.82;;;10.63;;
11394;SDS011;5753;54.402;10.220;2023-07-08T01:07:02;12.18;;;8.13;;
11394;SDS011;5753;54.402;10.220;2023-07-08T01:10:03;9.57;;;8.07;;
11394;SDS011;5753;54.402;10.220;2023-07-08T01:12:46;15.55;;;8.13;;
11394;SDS011;5753;54.402;10.220;2023-07-08T01:15:17;10.57;;;9.20;;
11394;SDS011;5753;54.402;10.220;2023-07-08T01:17:45;12.02;;;10.20;;
11394;SDS011;5753;54.402;10.220;2023-07-08T01:20:12;16.08;;;10.07;;
11394;SDS011;5753;54.402;10.220;2023-07-08T01:22:39;10.40;;;8.88;;
11394;SDS011;5753;54.402;10.220;2023-07-08T01:25:07;10.82;;;9.40;;
11394;SDS011;5753;54.402;10.220;2023-07-08T01:27:36;13.60;;;11.00;;
11394;SDS011;5753;54.402;10.220;2023-07-08T01:30:06;15.18;;;10.10;;
11394;SDS011;5753;54.402;10.220;2023-07-08T01:32:34;15.30;;;11.45;;
11394;SDS011;5753;54.402;10.220;2023-07-08T01:35:04;16.83;;;9.18;;
11394;SDS011;5753;54.402;10.220;2023-07-08T01:42:55;15.70;;;11.43;;
11394;SDS011;5753;54.402;10.220;2023-07-08T01:45:23;13.48;;;10.93;;
11394;SDS011;5753;54.402;10.220;2023-07-08T01:47:53;14.43;;;10.95;;
11394;SDS011;5753;54.402;10.220;2023-07-08T01:50:38;12.50;;;10.80;;
11394;SDS011;5753;54.402;10.220;2023-07-08T01:53:14;14.13;;;11.48;;
11394;SDS011;5753;54.402;10.220;2023-07-08T01:55:41;13.20;;;10.88;;
11394;SDS011;5753;54.402;10.220;2023-07-08T01:58:07;14.52;;;11.30;;
11394;SDS011;5753;54.402;10.220;2023-07-08T02:00:33;14.80;;;11.88;;
11394;SDS011;5753;54.402;10.220;2023-07-08T02:02:59;13.43;;;10.35;;
11394;SDS011;5753;54.402;10.220;2023-07-08T02:05:25;13.35;;;10.15;;
11394;SDS011;5753;54.402;10.220;2023-07-08T02:07:51;13.27;;;11.95;;
11394;SDS011;5753;54.402;10.220;2023-07-08T02:10:17;14.23;;;11.95;;
11394;SDS011;5753;54.402;10.220;2023-07-08T02:12:43;11.68;;;10.13;;
11394;SDS011;5753;54.402;10.220;2023-07-08T02:15:10;14.57;;;12.80;;
11394;SDS011;5753;54.402;10.220;2023-07-08T02:17:36;12.90;;;10.52;;
11394;SDS011;5753;54.402;10.220;2023-07-08T02:20:02;14.95;;;10.85;;
11394;SDS011;5753;54.402;10.220;2023-07-08T02:22:28;20.10;;;12.50;;
11394;SDS011;5753;54.402;10.220;2023-07-08T02:24:54;13.70;;;12.30;;
11394;SDS011;5753;54.402;10.220;2023-07-08T02:27:21;16.52;;;12.32;;
11394;SDS011;5753;54.402;10.220;2023-07-08T02:29:47;14.27;;;11.27;;
11394;SDS011;5753;54.402;10.220;2023-07-08T02:32:13;12.98;;;11.20;;
11394;SDS011;5753;54.402;10.220;2023-07-08T02:34:40;16.75;;;11.90;;
11394;SDS011;5753;54.402;10.220;2023-07-08T02:37:06;14.30;;;10.98;;
11394;SDS011;5753;54.402;10.220;2023-07-08T02:39:32;16.02;;;10.88;;
11394;SDS011;5753;54.402;10.220;2023-07-08T02:41:58;13.00;;;11.65;;
11394;SDS011;5753;54.402;10.220;2023-07-08T02:44:26;17.15;;;11.25;;
11394;SDS011;5753;54.402;10.220;2023-07-08T02:46:52;13.15;;;11.68;;
11394;SDS011;5753;54.402;10.220;2023-07-08T02:49:18;13.40;;;11.98;;
11394;SDS011;5753;54.402;10.220;2023-07-08T02:51:44;13.07;;;11.77;;
11394;SDS011;5753;54.402;10.220;2023-07-08T02:54:10;13.95;;;12.48;;
11394;SDS011;5753;54.402;10.220;2023-07-08T02:56:36;18.92;;;14.57;;
11394;SDS011;5753;54.402;10.220;2023-07-08T02:59:02;17.65;;;14.63;;
11394;SDS011;5753;54.402;10.220;2023-07-08T03:01:28;15.32;;;13.65;;
11394;SDS011;5753;54.402;10.220;2023-07-08T03:03:54;14.23;;;12.02;;
11394;SDS011;5753;54.402;10.220;2023-07-08T03:06:23;14.63;;;11.57;;
11394;SDS011;5753;54.402;10.220;2023-07-08T03:08:49;15.35;;;13.70;;
11394;SDS011;5753;54.402;10.220;2023-07-08T03:11:15;16.17;;;12.55;;
11394;SDS011;5753;54.402;10.220;2023-07-08T03:13:41;19.52;;;14.63;;
11394;SDS011;5753;54.402;10.220;2023-07-08T03:16:07;16.08;;;14.45;;
11394;SDS011;5753;54.402;10.220;2023-07-08T03:18:37;14.27;;;11.95;;
11394;SDS011;5753;54.402;10.220;2023-07-08T03:21:11;26.85;;;16.10;;
11394;SDS011;5753;54.402;10.220;2023-07-08T03:23:38;17.17;;;14.25;;
11394;SDS011;5753;54.402;10.220;2023-07-08T03:26:04;15.05;;;13.40;;
11394;SDS011;5753;54.402;10.220;2023-07-08T03:28:30;19.77;;;16.23;;
11394;SDS011;5753;54.402;10.220;2023-07-08T03:30:56;11.98;;;10.50;;
11394;SDS011;5753;54.402;10.220;2023-07-08T03:33:22;25.45;;;13.13;;
11394;SDS011;5753;54.402;10.220;2023-07-08T03:35:48;26.77;;;14.68;;
11394;SDS011;5753;54.402;10.220;2023-07-08T03:38:15;13.20;;;11.57;;
11394;SDS011;5753;54.402;10.220;2023-07-08T03:40:41;15.50;;;11.93;;
11394;SDS011;5753;54.402;10.220;2023-07-08T03:43:07;12.73;;;10.40;;
11394;SDS011;5753;54.402;10.220;2023-07-08T03:45:33;14.25;;;12.82;;
11394;SDS011;5753;54.402;10.220;2023-07-08T03:47:59;13.25;;;11.85;;
11394;SDS011;5753;54.402;10.220;2023-07-08T03:50:26;15.32;;;12.82;;
11394;SDS011;5753;54.402;10.220;2023-07-08T03:52:52;19.17;;;12.48;;
11394;SDS011;5753;54.402;10.220;2023-07-08T03:55:20;19.23;;;12.48;;
11394;SDS011;5753;54.402;10.220;2023-07-08T03:57:46;19.80;;;12.98;;
11394;SDS011;5753;54.402;10.220;2023-07-08T04:00:13;12.63;;;11.20;;
11394;SDS011;5753;54.402;10.220;2023-07-08T04:02:40;15.98;;;10.63;;
11394;SDS011;5753;54.402;10.220;2023-07-08T04:05:10;17.92;;;11.50;;
11394;SDS011;5753;54.402;10.220;2023-07-08T04:07:40;19.05;;;11.07;;
11394;SDS011;5753;54.402;10.220;2023-07-08T04:10:07;13.80;;;11.13;;
11394;SDS011;5753;54.402;10.220;2023-07-08T04:12:34;13.20;;;11.23;;
11394;SDS011;5753;54.402;10.220;2023-07-08T04:15:00;14.70;;;12.15;;
11394;SDS011;5753;54.402;10.220;2023-07-08T04:17:27;15.52;;;13.32;;
11394;SDS011;5753;54.402;10.220;2023-07-08T04:19:54;13.70;;;11.00;;
11394;SDS011;5753;54.402;10.220;2023-07-08T04:22:21;15.20;;;11.73;;
11394;SDS011;5753;54.402;10.220;2023-07-08T04:24:49;15.60;;;12.32;;
11394;SDS011;5753;54.402;10.220;2023-07-08T04:27:15;17.02;;;10.60;;
11394;SDS011;5753;54.402;10.220;2023-07-08T04:29:42;16.17;;;11.57;;
11394;SDS011;5753;54.402;10.220;2023-07-08T04:32:09;13.10;;;10.55;;
11394;SDS011;5753;54.402;10.220;2023-07-08T04:34:35;13.15;;;10.48;;
11394;SDS011;5753;54.402;10.220;2023-07-08T04:37:01;15.73;;;11.40;;
11394;SDS011;5753;54.402;10.220;2023-07-08T04:39:29;14.35;;;12.95;;
11394;SDS011;5753;54.402;10.220;2023-07-08T04:41:56;19.65;;;11.15;;
11394;SDS011;5753;54.402;10.220;2023-07-08T04:44:22;15.18;;;12.60;;
11394;SDS011;5753;54.402;10.220;2023-07-08T04:46:50;14.95;;;10.65;;
11394;SDS011;5753;54.402;10.220;2023-07-08T04:49:19;17.45;;;13.35;;
11394;SDS011;5753;54.402;10.220;2023-07-08T04:51:46;11.90;;;10.65;;
11394;SDS011;5753;54.402;10.220;2023-07-08T04:54:12;12.20;;;10.77;;
11394;SDS011;5753;54.402;10.220;2023-07-08T04:59:07;11.57;;;10.07;;
11394;SDS011;5753;54.402;10.220;2023-07-08T05:01:35;12.43;;;10.23;;
11394;SDS011;5753;54.402;10.220;2023-07-08T05:04:01;18.38;;;11.07;;
11394;SDS011;5753;54.402;10.220;2023-07-08T05:06:30;17.50;;;9.63;;
11394;SDS011;5753;54.402;10.220;2023-07-08T05:08:57;10.80;;;9.70;;
11394;SDS011;5753;54.402;10.220;2023-07-08T05:11:24;12.30;;;9.75;;
11394;SDS011;5753;54.402;10.220;2023-07-08T05:13:50;11.30;;;9.73;;
11394;SDS011;5753;54.402;10.220;2023-07-08T05:16:16;14.27;;;12.65;;
11394;SDS011;5753;54.402;10.220;2023-07-08T05:18:43;15.88;;;11.65;;
11394;SDS011;5753;54.402;10.220;2023-07-08T05:21:09;11.55;;;10.13;;
11394;SDS011;5753;54.402;10.220;2023-07-08T05:23:36;20.33;;;11.02;;
11394;SDS011;5753;54.402;10.220;2023-07-08T05:26:03;14.07;;;10.27;;
11394;SDS011;5753;54.402;10.220;2023-07-08T05:28:30;10.93;;;9.63;;
11394;SDS011;5753;54.402;10.220;2023-07-08T05:30:56;11.88;;;8.60;;
11394;SDS011;5753;54.402;10.220;2023-07-08T05:33:23;16.38;;;8.10;;
11394;SDS011;5753;54.402;10.220;2023-07-08T05:35:51;16.20;;;8.55;;
11394;SDS011;5753;54.402;10.220;2023-07-08T05:38:17;11.60;;;7.63;;
11394;SDS011;5753;54.402;10.220;2023-07-08T05:40:48;10.85;;;8.05;;
11394;SDS011;5753;54.402;10.220;2023-07-08T05:43:15;8.52;;;7.68;;
11394;SDS011;5753;54.402;10.220;2023-07-08T05:45:41;11.93;;;8.70;;
11394;SDS011;5753;54.402;10.220;2023-07-08T05:48:07;13.48;;;7.72;;
11394;SDS011;5753;54.402;10.220;2023-07-08T05:50:34;12.50;;;8.65;;
11394;SDS011;5753;54.402;10.220;2023-07-08T05:53:00;11.57;;;6.55;;
11394;SDS011;5753;54.402;10.220;2023-07-08T05:55:26;7.15;;;6.43;;
11394;SDS011;5753;54.402;10.220;2023-07-08T05:57:52;10.60;;;7.47;;
11394;SDS011;5753;54.402;10.220;2023-07-08T06:00:18;9.75;;;7.65;;
11394;SDS011;5753;54.402;10.220;2023-07-08T06:02:44;11.05;;;7.13;;
11394;SDS011;5753;54.402;10.220;2023-07-08T06:05:10;12.40;;;8.40;;
11394;SDS011;5753;54.402;10.220;2023-07-08T06:07:36;9.90;;;7.05;;
11394;SDS011;5753;54.402;10.220;2023-07-08T06:10:02;6.45;;;5.70;;
11394;SDS011;5753;54.402;10.220;2023-07-08T06:12:29;7.00;;;6.22;;
11394;SDS011;5753;54.402;10.220;2023-07-08T06:14:55;9.48;;;6.30;;
11394;SDS011;5753;54.402;10.220;2023-07-08T06:17:21;7.68;;;6.78;;
11394;SDS011;5753;54.402;10.220;2023-07-08T06:19:48;15.45;;;5.43;;
11394;SDS011;5753;54.402;10.220;2023-07-08T06:22:14;5.32;;;4.80;;
11394;SDS011;5753;54.402;10.220;2023-07-08T06:24:41;11.07;;;7.03;;
11394;SDS011;5753;54.402;10.220;2023-07-08T06:27:07;6.20;;;4.60;;
11394;SDS011;5753;54.402;10.220;2023-07-08T06:29:33;8.68;;;5.00;;
11394;SDS011;5753;54.402;10.220;2023-07-08T06:32:00;6.72;;;5.07;;
11394;SDS011;5753;54.402;10.220;2023-07-08T06:34:27;10.88;;;5.28;;
11394;SDS011;5753;54.402;10.220;2023-07-08T06:36:53;13.77;;;4.80;;
11394;SDS011;5753;54.402;10.220;2023-07-08T06:39:19;5.72;;;4.78;;
11394;SDS011;5753;54.402;10.220;2023-07-08T06:41:45;6.93;;;6.22;;
11394;SDS011;5753;54.402;10.220;2023-07-08T06:44:12;10.07;;;6.13;;
11394;SDS011;5753;54.402;10.220;2023-07-08T06:46:38;5.28;;;4.75;;
11394;SDS011;5753;54.402;10.220;2023-07-08T06:49:04;7.93;;;5.80;;
11394;SDS011;5753;54.402;10.220;2023-07-08T06:51:33;6.47;;;5.07;;
11394;SDS011;5753;54.402;10.220;2023-07-08T06:54:00;7.68;;;6.55;;
11394;SDS011;5753;54.402;10.220;2023-07-08T06:56:30;13.80;;;6.15;;
11394;SDS011;5753;54.402;10.220;2023-07-08T06:58:56;6.65;;;4.30;;
11394;SDS011;5753;54.402;10.220;2023-07-08T07:01:22;7.50;;;4.63;;
11394;SDS011;5753;54.402;10.220;2023-07-08T07:03:48;7.68;;;6.10;;
11394;SDS011;5753;54.402;10.220;2023-07-08T07:06:14;6.28;;;4.80;;
11394;SDS011;5753;54.402;10.220;2023-07-08T07:08:40;8.35;;;5.00;;
11394;SDS011;5753;54.402;10.220;2023-07-08T07:11:06;4.28;;;3.33;;
11394;SDS011;5753;54.402;10.220;2023-07-08T07:13:32;5.53;;;3.78;;
11394;SDS011;5753;54.402;10.220;2023-07-08T07:15:58;5.90;;;3.92;;
11394;SDS011;5753;54.402;10.220;2023-07-08T07:18:25;6.32;;;3.80;;
11394;SDS011;5753;54.402;10.220;2023-07-08T07:20:53;5.18;;;3.28;;
11394;SDS011;5753;54.402;10.220;2023-07-08T07:23:20;6.32;;;3.38;;
11394;SDS011;5753;54.402;10.220;2023-07-08T07:25:46;7.22;;;4.07;;
11394;SDS011;5753;54.402;10.220;2023-07-08T07:28:13;9.70;;;4.10;;
11394;SDS011;5753;54.402;10.220;2023-07-08T07:30:41;6.93;;;4.90;;
11394;SDS011;5753;54.402;10.220;2023-07-08T07:33:08;7.88;;;4.75;;
11394;SDS011;5753;54.402;10.220;2023-07-08T07:35:35;7.38;;;4.85;;
11394;SDS011;5753;54.402;10.220;2023-07-08T07:38:01;7.05;;;3.30;;
11394;SDS011;5753;54.402;10.220;2023-07-08T07:40:27;5.68;;;4.00;;
11394;SDS011;5753;54.402;10.220;2023-07-08T07:42:53;3.60;;;3.22;;
11394;SDS011;5753;54.402;10.220;2023-07-08T07:45:19;3.45;;;3.03;;
11394;SDS011;5753;54.402;10.220;2023-07-08T07:47:47;7.35;;;3.45;;
11394;SDS011;5753;54.402;10.220;2023-07-08T07:50:13;5.30;;;3.78;;
11394;SDS011;5753;54.402;10.220;2023-07-08T07:52:40;3.85;;;3.28;;
11394;SDS011;5753;54.402;10.220;2023-07-08T07:55:06;9.40;;;4.35;;
11394;SDS011;5753;54.402;10.220;2023-07-08T07:57:33;4.95;;;4.45;;
11394;SDS011;5753;54.402;10.220;2023-07-08T07:59:59;5.57;;;3.95;;
11394;SDS011;5753;54.402;10.220;2023-07-08T08:02:25;6.55;;;3.53;;
11394;SDS011;5753;54.402;10.220;2023-07-08T08:04:52;4.93;;;4.30;;
11394;SDS011;5753;54.402;10.220;2023-07-08T08:07:18;8.10;;;3.92;;
11394;SDS011;5753;54.402;10.220;2023-07-08T08:09:44;6.22;;;3.20;;
11394;SDS011;5753;54.402;10.220;2023-07-08T08:12:11;9.10;;;3.58;;
11394;SDS011;5753;54.402;10.220;2023-07-08T08:14:37;4.65;;;3.97;;
11394;SDS011;5753;54.402;10.220;2023-07-08T08:17:03;5.93;;;3.97;;
11394;SDS011;5753;54.402;10.220;2023-07-08T08:19:30;5.13;;;3.53;;
11394;SDS011;5753;54.402;10.220;2023-07-08T08:21:57;6.90;;;4.05;;
11394;SDS011;5753;54.402;10.220;2023-07-08T08:24:23;6.05;;;3.85;;
11394;SDS011;5753;54.402;10.220;2023-07-08T08:26:49;7.15;;;4.43;;
11394;SDS011;5753;54.402;10.220;2023-07-08T08:29:15;6.90;;;4.75;;
11394;SDS011;5753;54.402;10.220;2023-07-08T08:31:41;6.15;;;3.83;;
11394;SDS011;5753;54.402;10.220;2023-07-08T08:34:07;5.40;;;3.45;;
11394;SDS011;5753;54.402;10.220;2023-07-08T08:36:33;5.70;;;4.65;;
11394;SDS011;5753;54.402;10.220;2023-07-08T08:38:59;3.88;;;3.10;;
11394;SDS011;5753;54.402;10.220;2023-07-08T08:41:33;4.72;;;3.38;;
11394;SDS011;5753;54.402;10.220;2023-07-08T08:44:05;6.68;;;3.60;;
11394;SDS011;5753;54.402;10.220;2023-07-08T08:49:30;4.82;;;2.95;;
11394;SDS011;5753;54.402;10.220;2023-07-08T08:52:04;5.17;;;3.93;;
11394;SDS011;5753;54.402;10.220;2023-07-08T08:54:30;5.95;;;4.25;;
11394;SDS011;5753;54.402;10.220;2023-07-08T09:02:41;5.53;;;3.80;;
11394;SDS011;5753;54.402;10.220;2023-07-08T09:05:32;7.22;;;4.07;;
11394;SDS011;5753;54.402;10.220;2023-07-08T09:10:50;5.47;;;3.85;;
11394;SDS011;5753;54.402;10.220;2023-07-08T09:13:40;8.52;;;3.35;;
11394;SDS011;5753;54.402;10.220;2023-07-08T09:25:12;8.43;;;3.05;;
11394;SDS011;5753;54.402;10.220;2023-07-08T09:27:24;11.27;;;4.07;;
11394;SDS011;5753;54.402;10.220;2023-07-08T09:29:50;6.50;;;4.10;;
11394;SDS011;5753;54.402;10.220;2023-07-08T09:34:45;8.05;;;4.00;;
11394;SDS011;5753;54.402;10.220;2023-07-08T09:39:49;3.72;;;3.40;;
11394;SDS011;5753;54.402;10.220;2023-07-08T09:42:16;9.95;;;3.53;;
11394;SDS011;5753;54.402;10.220;2023-07-08T09:44:44;5.97;;;3.13;;
11394;SDS011;5753;54.402;10.220;2023-07-08T09:47:20;3.15;;;2.75;;
11394;SDS011;5753;54.402;10.220;2023-07-08T09:49:57;4.60;;;3.38;;
11394;SDS011;5753;54.402;10.220;2023-07-08T09:52:24;5.32;;;3.22;;
11394;SDS011;5753;54.402;10.220;2023-07-08T09:54:54;6.32;;;4.22;;
11394;SDS011;5753;54.402;10.220;2023-07-08T09:59:58;11.30;;;2.95;;
11394;SDS011;5753;54.402;10.220;2023-07-08T10:05:15;4.75;;;2.35;;
11394;SDS011;5753;54.402;10.220;2023-07-08T10:07:43;3.35;;;3.00;;
11394;SDS011;5753;54.402;10.220;2023-07-08T10:10:14;6.15;;;2.60;;
11394;SDS011;5753;54.402;10.220;2023-07-08T10:12:51;6.65;;;3.10;;
11394;SDS011;5753;54.402;10.220;2023-07-08T10:15:30;12.77;;;3.30;;
11394;SDS011;5753;54.402;10.220;2023-07-08T10:18:16;3.67;;;3.40;;
11394;SDS011;5753;54.402;10.220;2023-07-08T10:26:19;6.25;;;2.95;;
11394;SDS011;5753;54.402;10.220;2023-07-08T10:31:30;6.88;;;2.85;;
11394;SDS011;5753;54.402;10.220;2023-07-08T10:36:53;6.07;;;3.78;;
11394;SDS011;5753;54.402;10.220;2023-07-08T10:39:41;6.20;;;3.20;;
11394;SDS011;5753;54.402;10.220;2023-07-08T10:45:34;4.70;;;2.55;;
11394;SDS011;5753;54.402;10.220;2023-07-08T11:01:54;4.30;;;3.00;;
11394;SDS011;5753;54.402;10.220;2023-07-08T11:07:16;6.65;;;4.28;;
11394;SDS011;5753;54.402;10.220;2023-07-08T11:10:05;3.85;;;3.42;;
11394;SDS011;5753;54.402;10.220;2023-07-08T11:15:21;2.78;;;2.58;;
11394;SDS011;5753;54.402;10.220;2023-07-08T11:18:09;4.45;;;2.92;;
11394;SDS011;5753;54.402;10.220;2023-07-08T11:21:23;6.47;;;3.20;;
11394;SDS011;5753;54.402;10.220;2023-07-08T11:23:37;7.05;;;3.15;;
11394;SDS011;5753;54.402;10.220;2023-07-08T11:28:51;3.53;;;3.00;;
11394;SDS011;5753;54.402;10.220;2023-07-08T11:31:22;5.03;;;3.00;;
11394;SDS011;5753;54.402;10.220;2023-07-08T11:33:50;4.47;;;2.90;;
11394;SDS011;5753;54.402;10.220;2023-07-08T11:36:19;3.10;;;2.90;;
11394;SDS011;5753;54.402;10.220;2023-07-08T11:38:47;5.85;;;3.50;;
11394;SDS011;5753;54.402;10.220;2023-07-08T11:41:15;4.65;;;2.85;;
11394;SDS011;5753;54.402;10.220;2023-07-08T11:43:51;2.53;;;2.22;;
11394;SDS011;5753;54.402;10.220;2023-07-08T11:46:22;3.63;;;2.63;;
11394;SDS011;5753;54.402;10.220;2023-07-08T11:48:53;3.78;;;2.90;;
11394;SDS011;5753;54.402;10.220;2023-07-08T11:51:27;4.80;;;3.60;;
11394;SDS011;5753;54.402;10.220;2023-07-08T11:56:28;5.00;;;4.17;;
11394;SDS011;5753;54.402;10.220;2023-07-08T11:59:24;5.53;;;3.40;;
11394;SDS011;5753;54.402;10.220;2023-07-08T12:01:54;5.50;;;2.47;;
11394;SDS011;5753;54.402;10.220;2023-07-08T12:05:03;2.60;;;2.40;;
11394;SDS011;5753;54.402;10.220;2023-07-08T12:07:41;2.47;;;2.00;;
11394;SDS011;5753;54.402;10.220;2023-07-08T12:12:47;4.65;;;2.53;;
11394;SDS011;5753;54.402;10.220;2023-07-08T12:15:24;5.63;;;2.47;;
11394;SDS011;5753;54.402;10.220;2023-07-08T12:17:53;3.55;;;2.17;;
11394;SDS011;5753;54.402;10.220;2023-07-08T12:20:41;3.22;;;2.03;;
11394;SDS011;5753;54.402;10.220;2023-07-08T12:23:35;2.70;;;1.80;;
11394;SDS011;5753;54.402;10.220;2023-07-08T12:26:01;5.85;;;2.42;;
11394;SDS011;5753;54.402;10.220;2023-07-08T12:28:29;3.35;;;2.30;;
11394;SDS011;5753;54.402;10.220;2023-07-08T12:30:56;4.13;;;2.45;;
11394;SDS011;5753;54.402;10.220;2023-07-08T12:33:30;2.85;;;2.58;;
11394;SDS011;5753;54.402;10.220;2023-07-08T12:35:59;4.00;;;3.42;;
11394;SDS011;5753;54.402;10.220;2023-07-08T12:38:42;7.40;;;2.65;;
11394;SDS011;5753;54.402;10.220;2023-07-08T12:41:11;5.90;;;2.78;;
11394;SDS011;5753;54.402;10.220;2023-07-08T12:43:37;4.43;;;2.00;;
11394;SDS011;5753;54.402;10.220;2023-07-08T12:46:03;3.67;;;2.78;;
11394;SDS011;5753;54.402;10.220;2023-07-08T12:48:33;3.53;;;2.75;;
11394;SDS011;5753;54.402;10.220;2023-07-08T12:51:00;3.55;;;2.42;;
11394;SDS011;5753;54.402;10.220;2023-07-08T12:53:28;3.17;;;2.00;;
11394;SDS011;5753;54.402;10.220;2023-07-08T12:55:55;3.13;;;2.33;;
11394;SDS011;5753;54.402;10.220;2023-07-08T12:58:24;4.82;;;3.05;;
11394;SDS011;5753;54.402;10.220;2023-07-08T13:00:53;2.70;;;2.45;;
11394;SDS011;5753;54.402;10.220;2023-07-08T13:03:22;3.30;;;2.42;;
11394;SDS011;5753;54.402;10.220;2023-07-08T13:05:51;3.53;;;2.55;;
11394;SDS011;5753;54.402;10.220;2023-07-08T13:08:20;6.80;;;2.38;;
11394;SDS011;5753;54.402;10.220;2023-07-08T13:10:48;6.72;;;2.85;;
11394;SDS011;5753;54.402;10.220;2023-07-08T13:13:18;3.80;;;1.88;;
11394;SDS011;5753;54.402;10.220;2023-07-08T13:15:48;2.83;;;2.55;;
11394;SDS011;5753;54.402;10.220;2023-07-08T13:18:16;3.40;;;1.85;;
11394;SDS011;5753;54.402;10.220;2023-07-08T13:20:43;2.88;;;2.50;;
11394;SDS011;5753;54.402;10.220;2023-07-08T13:23:13;2.25;;;2.05;;
11394;SDS011;5753;54.402;10.220;2023-07-08T13:25:40;3.55;;;2.25;;
11394;SDS011;5753;54.402;10.220;2023-07-08T13:31:00;2.20;;;1.90;;
11394;SDS011;5753;54.402;10.220;2023-07-08T13:33:31;2.95;;;2.63;;
11394;SDS011;5753;54.402;10.220;2023-07-08T13:36:03;5.35;;;2.28;;
11394;SDS011;5753;54.402;10.220;2023-07-08T13:38:32;3.78;;;2.67;;
11394;SDS011;5753;54.402;10.220;2023-07-08T13:41:04;3.70;;;2.75;;
11394;SDS011;5753;54.402;10.220;2023-07-08T13:43:33;3.63;;;2.13;;
11394;SDS011;5753;54.402;10.220;2023-07-08T13:46:01;2.95;;;2.65;;
11394;SDS011;5753;54.402;10.220;2023-07-08T13:48:36;5.35;;;2.72;;
11394;SDS011;5753;54.402;10.220;2023-07-08T13:51:21;4.53;;;2.00;;
11394;SDS011;5753;54.402;10.220;2023-07-08T13:53:50;1.90;;;1.80;;
11394;SDS011;5753;54.402;10.220;2023-07-08T13:56:23;5.82;;;3.38;;
11394;SDS011;5753;54.402;10.220;2023-07-08T13:59:02;3.50;;;3.20;;
11394;SDS011;5753;54.402;10.220;2023-07-08T14:01:31;5.10;;;2.72;;
11394;SDS011;5753;54.402;10.220;2023-07-08T14:04:00;3.10;;;2.42;;
11394;SDS011;5753;54.402;10.220;2023-07-08T14:06:29;2.65;;;2.13;;
11394;SDS011;5753;54.402;10.220;2023-07-08T14:08:58;2.45;;;2.25;;
11394;SDS011;5753;54.402;10.220;2023-07-08T14:11:26;3.00;;;2.40;;
11394;SDS011;5753;54.402;10.220;2023-07-08T14:13:52;4.28;;;2.45;;
11394;SDS011;5753;54.402;10.220;2023-07-08T14:16:23;4.55;;;2.92;;
11394;SDS011;5753;54.402;10.220;2023-07-08T14:18:52;6.60;;;3.22;;
11394;SDS011;5753;54.402;10.220;2023-07-08T14:21:20;2.92;;;2.15;;
11394;SDS011;5753;54.402;10.220;2023-07-08T14:23:46;3.08;;;2.88;;
11394;SDS011;5753;54.402;10.220;2023-07-08T14:26:12;3.05;;;2.75;;
11394;SDS011;5753;54.402;10.220;2023-07-08T14:28:38;4.88;;;2.13;;
11394;SDS011;5753;54.402;10.220;2023-07-08T14:31:11;7.35;;;3.03;;
11394;SDS011;5753;54.402;10.220;2023-07-08T14:33:39;2.83;;;2.50;;
11394;SDS011;5753;54.402;10.220;2023-07-08T14:36:11;3.53;;;2.47;;
11394;SDS011;5753;54.402;10.220;2023-07-08T14:38:39;6.72;;;2.90;;
11394;SDS011;5753;54.402;10.220;2023-07-08T14:41:05;5.22;;;2.75;;
11394;SDS011;5753;54.402;10.220;2023-07-08T14:43:32;7.25;;;2.90;;
11394;SDS011;5753;54.402;10.220;2023-07-08T14:46:00;2.50;;;2.30;;
11394;SDS011;5753;54.402;10.220;2023-07-08T14:48:29;3.95;;;2.78;;
11394;SDS011;5753;54.402;10.220;2023-07-08T14:50:56;4.00;;;2.80;;
11394;SDS011;5753;54.402;10.220;2023-07-08T14:53:23;6.25;;;2.55;;
11394;SDS011;5753;54.402;10.220;2023-07-08T14:55:50;3.13;;;2.42;;
11394;SDS011;5753;54.402;10.220;2023-07-08T14:58:26;3.80;;;2.75;;
11394;SDS011;5753;54.402;10.220;2023-07-08T15:00:55;4.65;;;2.38;;
11394;SDS011;5753;54.402;10.220;2023-07-08T15:03:23;3.55;;;2.63;;
11394;SDS011;5753;54.402;10.220;2023-07-08T15:05:50;4.78;;;2.53;;
11394;SDS011;5753;54.402;10.220;2023-07-08T15:08:17;7.68;;;2.70;;
11394;SDS011;5753;54.402;10.220;2023-07-08T15:10:52;2.33;;;2.13;;
11394;SDS011;5753;54.402;10.220;2023-07-08T15:13:19;3.85;;;2.10;;
11394;SDS011;5753;54.402;10.220;2023-07-08T15:18:17;3.47;;;2.38;;
11394;SDS011;5753;54.402;10.220;2023-07-08T15:20:47;4.00;;;2.85;;
11394;SDS011;5753;54.402;10.220;2023-07-08T15:23:13;3.30;;;2.88;;
11394;SDS011;5753;54.402;10.220;2023-07-08T15:25:43;2.70;;;2.13;;
11394;SDS011;5753;54.402;10.220;2023-07-08T15:28:14;4.57;;;2.45;;
11394;SDS011;5753;54.402;10.220;2023-07-08T15:30:43;2.50;;;2.08;;
11394;SDS011;5753;54.402;10.220;2023-07-08T15:33:10;5.95;;;1.92;;
11394;SDS011;5753;54.402;10.220;2023-07-08T15:35:40;5.20;;;3.40;;
11394;SDS011;5753;54.402;10.220;2023-07-08T15:38:07;2.72;;;2.53;;
11394;SDS011;5753;54.402;10.220;2023-07-08T15:40:33;2.88;;;2.47;;
11394;SDS011;5753;54.402;10.220;2023-07-08T15:43:01;2.45;;;2.22;;
11394;SDS011;5753;54.402;10.220;2023-07-08T15:45:31;3.33;;;2.30;;
11394;SDS011;5753;54.402;10.220;2023-07-08T15:48:02;3.58;;;2.38;;
11394;SDS011;5753;54.402;10.220;2023-07-08T15:50:29;4.28;;;2.30;;
11394;SDS011;5753;54.402;10.220;2023-07-08T15:52:55;3.25;;;2.35;;
11394;SDS011;5753;54.402;10.220;2023-07-08T15:55:23;3.38;;;2.40;;
11394;SDS011;5753;54.402;10.220;2023-07-08T15:57:56;3.38;;;2.13;;
11394;SDS011;5753;54.402;10.220;2023-07-08T16:00:30;2.70;;;2.10;;
11394;SDS011;5753;54.402;10.220;2023-07-08T16:03:03;3.65;;;3.35;;
11394;SDS011;5753;54.402;10.220;2023-07-08T16:05:32;2.35;;;2.15;;
11394;SDS011;5753;54.402;10.220;2023-07-08T16:08:02;4.15;;;2.83;;
11394;SDS011;5753;54.402;10.220;2023-07-08T16:10:28;5.55;;;3.10;;
11394;SDS011;5753;54.402;10.220;2023-07-08T16:12:55;2.90;;;2.63;;
11394;SDS011;5753;54.402;10.220;2023-07-08T16:15:25;4.70;;;2.88;;
11394;SDS011;5753;54.402;10.220;2023-07-08T16:17:55;2.92;;;2.67;;
11394;SDS011;5753;54.402;10.220;2023-07-08T16:20:23;5.25;;;3.97;;
11394;SDS011;5753;54.402;10.220;2023-07-08T16:22:51;3.17;;;2.60;;